Time,TemperatureF,DewpointF,PressureIn,WindDirection,WindDirectionDegrees,WindSpeedMPH,WindSpeedGustMPH,Humidity,HourlyPrecipIn,Conditions,Clouds,dailyrainin,SoftwareType,DateUTC
2013-03-23 00:00:00,48.4,26.4,29.89,SW,217,4.0,10.0,42,0.00,,,0.00,VWS V14.01,2013-03-23 06:00:00,
2013-03-23 00:02:00,48.3,26.3,29.89,WSW,247,2.0,10.0,42,0.00,,,0.00,VWS V14.01,2013-03-23 06:02:00,
2013-03-23 00:07:00,48.5,26.5,29.89,SSW,200,6.0,11.0,42,0.00,,,0.00,VWS V14.01,2013-03-23 06:07:00,
2013-03-23 00:12:00,48.7,26.6,29.89,SW,221,1.0,11.0,42,0.00,,,0.00,VWS V14.01,2013-03-23 06:12:00,
2013-03-23 00:15:00,48.7,25.5,29.89,WSW,244,2.0,11.0,40,0.00,,,0.00,VWS V14.01,2013-03-23 06:15:00,
2013-03-23 00:17:00,48.7,25.5,29.89,SW,227,11.0,11.0,40,0.00,,,0.00,VWS V14.01,2013-03-23 06:17:00,
2013-03-23 00:22:00,48.8,25.6,29.89,SW,234,2.0,7.0,40,0.00,,,0.00,VWS V14.01,2013-03-23 06:22:00,
2013-03-23 00:27:00,48.7,24.9,29.89,SW,219,6.0,8.0,39,0.00,,,0.00,VWS V14.01,2013-03-23 06:27:00,
2013-03-23 00:30:00,48.7,24.9,29.89,SW,224,1.0,8.0,39,0.00,,,0.00,VWS V14.01,2013-03-23 06:30:00,
2013-03-23 00:32:00,48.7,24.9,29.89,SW,226,2.0,8.0,39,0.00,,,0.00,VWS V14.01,2013-03-23 06:32:00,
2013-03-23 00:37:00,48.7,24.2,29.89,SW,225,2.0,7.0,38,0.00,,,0.00,VWS V14.01,2013-03-23 06:37:00,
2013-03-23 00:42:00,48.6,24.2,29.89,SW,226,3.0,7.0,38,0.00,,,0.00,VWS V14.01,2013-03-23 06:42:00,
2013-03-23 00:45:00,48.5,24.7,29.88,WSW,237,3.0,7.0,39,0.00,,,0.00,VWS V14.01,2013-03-23 06:45:00,
2013-03-23 00:47:00,48.5,24.7,29.88,SW,224,1.0,7.0,39,0.00,,,0.00,VWS V14.01,2013-03-23 06:47:00,
2013-03-23 00:52:00,48.5,24.7,29.89,SW,215,4.0,7.0,39,0.00,,,0.00,VWS V14.01,2013-03-23 06:52:00,
2013-03-23 00:57:00,48.5,25.3,29.88,SSW,209,5.0,9.0,40,0.00,,,0.00,VWS V14.01,2013-03-23 06:57:00,
2013-03-23 01:00:00,48.3,25.7,29.88,SSW,210,4.0,9.0,41,0.00,,,0.00,VWS V14.01,2013-03-23 07:00:00,
2013-03-23 01:02:00,48.3,25.7,29.88,SW,223,4.0,9.0,41,0.00,,,0.00,VWS V14.01,2013-03-23 07:02:00,
2013-03-23 01:07:00,48.3,26.3,29.88,SSW,213,5.0,9.0,42,0.00,,,0.00,VWS V14.01,2013-03-23 07:07:00,
2013-03-23 01:12:00,48.1,26.1,29.88,SW,215,4.0,9.0,42,0.00,,,0.00,VWS V14.01,2013-03-23 07:12:00,
2013-03-23 01:15:00,47.8,26.4,29.88,SSW,203,1.0,9.0,43,0.00,,,0.00,VWS V14.01,2013-03-23 07:15:00,
2013-03-23 01:17:00,47.8,26.4,29.88,SSW,205,4.0,9.0,43,0.00,,,0.00,VWS V14.01,2013-03-23 07:17:00,
2013-03-23 01:22:00,47.4,26.0,29.88,SSW,211,4.0,7.0,43,0.00,,,0.00,VWS V14.01,2013-03-23 07:22:00,
2013-03-23 01:27:00,46.9,26.1,29.88,SSW,209,1.0,7.0,44,0.00,,,0.00,VWS V14.01,2013-03-23 07:27:00,
2013-03-23 01:30:00,46.3,26.1,29.88,South,188,0.0,7.0,45,0.00,,,0.00,VWS V14.01,2013-03-23 07:30:00,
2013-03-23 01:32:00,46.4,26.2,29.88,South,185,0.0,7.0,45,0.00,,,0.00,VWS V14.01,2013-03-23 07:32:00,
2013-03-23 01:37:00,46.0,25.9,29.88,SSW,196,0.0,4.0,45,0.00,,,0.00,VWS V14.01,2013-03-23 07:37:00,
2013-03-23 01:42:00,45.8,26.2,29.88,South,189,2.0,4.0,46,0.00,,,0.00,VWS V14.01,2013-03-23 07:42:00,
2013-03-23 01:45:00,45.9,26.3,29.88,SSW,198,0.0,4.0,46,0.00,,,0.00,VWS V14.01,2013-03-23 07:45:00,
2013-03-23 01:47:00,45.9,26.3,29.88,SSW,199,0.0,4.0,46,0.00,,,0.00,VWS V14.01,2013-03-23 07:47:00,
2013-03-23 01:52:00,45.9,26.3,29.89,SSW,200,2.0,5.0,46,0.00,,,0.00,VWS V14.01,2013-03-23 07:52:00,
2013-03-23 01:57:00,45.7,26.1,29.89,SW,219,0.0,5.0,46,0.00,,,0.00,VWS V14.01,2013-03-23 07:57:00,
2013-03-23 02:00:00,45.2,25.7,29.89,SW,219,0.0,5.0,46,0.00,,,0.00,VWS V14.01,2013-03-23 08:00:00,
2013-03-23 02:02:00,45.3,25.8,29.89,SW,219,0.0,5.0,46,0.00,,,0.00,VWS V14.01,2013-03-23 08:02:00,
2013-03-23 02:07:00,44.9,25.9,29.89,SW,219,0.0,0.0,47,0.00,,,0.00,VWS V14.01,2013-03-23 08:07:00,
2013-03-23 02:12:00,44.4,25.5,29.89,SW,218,0.0,1.0,47,0.00,,,0.00,VWS V14.01,2013-03-23 08:12:00,
2013-03-23 02:15:00,43.8,25.4,29.89,SSW,213,0.0,1.0,48,0.00,,,0.00,VWS V14.01,2013-03-23 08:15:00,
2013-03-23 02:17:00,43.8,25.4,29.89,SW,214,0.0,1.0,48,0.00,,,0.00,VWS V14.01,2013-03-23 08:17:00,
2013-03-23 02:22:00,43.5,25.6,29.89,SSW,209,0.0,2.0,49,0.00,,,0.00,VWS V14.01,2013-03-23 08:22:00,
2013-03-23 02:27:00,43.4,25.5,29.89,SSW,202,0.0,2.0,49,0.00,,,0.00,VWS V14.01,2013-03-23 08:27:00,
2013-03-23 02:30:00,43.1,25.2,29.89,SSW,202,1.0,3.0,49,0.00,,,0.00,VWS V14.01,2013-03-23 08:30:00,
2013-03-23 02:32:00,43.1,25.3,29.89,SSW,202,0.0,3.0,49,0.00,,,0.00,VWS V14.01,2013-03-23 08:32:00,
2013-03-23 02:37:00,42.9,25.6,29.89,SSW,200,0.0,4.0,50,0.00,,,0.00,VWS V14.01,2013-03-23 08:37:00,
2013-03-23 02:43:00,42.8,25.5,29.89,South,184,3.0,4.0,50,0.00,,,0.00,VWS V14.01,2013-03-23 08:43:00,
2013-03-23 02:45:00,42.9,26.0,29.89,SSW,200,1.0,4.0,51,0.00,,,0.00,VWS V14.01,2013-03-23 08:45:00,
2013-03-23 02:48:00,42.9,26.0,29.89,SSW,200,1.0,4.0,51,0.00,,,0.00,VWS V14.01,2013-03-23 08:48:00,
2013-03-23 02:53:00,43.0,25.6,29.89,SSW,198,1.0,3.0,50,0.00,,,0.00,VWS V14.01,2013-03-23 08:53:00,
2013-03-23 02:57:00,43.1,25.7,29.89,SSW,192,0.0,5.0,50,0.00,,,0.00,VWS V14.01,2013-03-23 08:57:00,
2013-03-23 03:00:00,43.0,25.6,29.89,SSW,198,3.0,6.0,50,0.00,,,0.00,VWS V14.01,2013-03-23 09:00:00,
2013-03-23 03:03:00,43.0,25.6,29.89,SSW,198,2.0,6.0,50,0.00,,,0.00,VWS V14.01,2013-03-23 09:03:00,
2013-03-23 03:08:00,43.1,25.7,29.89,South,187,1.0,4.0,50,0.00,,,0.00,VWS V14.01,2013-03-23 09:08:00,
2013-03-23 03:13:00,43.3,25.9,29.88,South,190,1.0,4.0,50,0.00,,,0.00,VWS V14.01,2013-03-23 09:13:00,
2013-03-23 03:15:00,43.3,25.4,29.89,SSW,193,0.0,4.0,49,0.00,,,0.00,VWS V14.01,2013-03-23 09:15:00,
2013-03-23 03:18:00,43.3,25.4,29.89,SSW,193,0.0,4.0,49,0.00,,,0.00,VWS V14.01,2013-03-23 09:18:00,
2013-03-23 03:23:00,43.5,25.1,29.88,SW,223,0.0,0.0,48,0.00,,,0.00,VWS V14.01,2013-03-23 09:23:00,
2013-03-23 03:28:00,44.1,23.6,29.88,West,275,0.0,5.0,44,0.00,,,0.00,VWS V14.01,2013-03-23 09:28:00,
2013-03-23 03:30:00,44.1,24.1,29.88,West,275,0.0,5.0,45,0.00,,,0.00,VWS V14.01,2013-03-23 09:30:00,
2013-03-23 03:33:00,44.1,24.1,29.88,West,275,0.0,0.0,45,0.00,,,0.00,VWS V14.01,2013-03-23 09:33:00,
2013-03-23 03:38:00,43.5,23.6,29.89,West,275,0.0,0.0,45,0.00,,,0.00,VWS V14.01,2013-03-23 09:38:00,
2013-03-23 03:43:00,42.7,23.9,29.89,West,277,0.0,4.0,47,0.00,,,0.00,VWS V14.01,2013-03-23 09:43:00,
2013-03-23 03:45:00,41.9,24.1,29.88,WSW,253,0.0,4.0,49,0.00,,,0.00,VWS V14.01,2013-03-23 09:45:00,
2013-03-23 03:48:00,41.9,24.1,29.88,WSW,253,0.0,0.0,49,0.00,,,0.00,VWS V14.01,2013-03-23 09:48:00,
2013-03-23 03:53:00,41.5,23.8,29.88,SW,232,1.0,3.0,49,0.00,,,0.00,VWS V14.01,2013-03-23 09:53:00,
2013-03-23 03:58:00,41.3,22.1,29.88,SW,230,2.0,4.0,46,0.00,,,0.00,VWS V14.01,2013-03-23 09:58:00,
2013-03-23 04:00:00,41.5,19.6,29.88,SW,233,0.0,4.0,41,0.00,,,0.00,VWS V14.01,2013-03-23 10:00:00,
2013-03-23 04:03:00,41.5,19.6,29.88,SW,234,0.0,0.0,41,0.00,,,0.00,VWS V14.01,2013-03-23 10:03:00,
2013-03-23 04:08:00,41.8,19.8,29.88,SW,233,2.0,2.0,41,0.00,,,0.00,VWS V14.01,2013-03-23 10:08:00,
2013-03-23 04:13:00,41.9,16.3,29.88,SW,236,0.0,4.0,35,0.00,,,0.00,VWS V14.01,2013-03-23 10:13:00,
2013-03-23 04:15:00,42.0,13.6,29.88,WSW,237,1.0,4.0,31,0.00,,,0.00,VWS V14.01,2013-03-23 10:15:00,
2013-03-23 04:18:00,42.0,13.6,29.88,WSW,237,1.0,2.0,31,0.00,,,0.00,VWS V14.01,2013-03-23 10:18:00,
2013-03-23 04:23:00,41.9,12.0,29.88,WSW,246,1.0,5.0,29,0.00,,,0.00,VWS V14.01,2013-03-23 10:23:00,
2013-03-23 04:28:00,41.7,11.8,29.88,WSW,246,1.0,5.0,29,0.00,,,0.00,VWS V14.01,2013-03-23 10:28:00,
2013-03-23 04:30:00,40.8,12.5,29.88,WSW,246,1.0,5.0,31,0.00,,,0.00,VWS V14.01,2013-03-23 10:30:00,
2013-03-23 04:33:00,40.8,11.8,29.88,WSW,246,1.0,1.0,30,0.00,,,0.00,VWS V14.01,2013-03-23 10:33:00,
2013-03-23 04:38:00,40.2,10.5,29.88,SW,232,0.0,4.0,29,0.00,,,0.00,VWS V14.01,2013-03-23 10:38:00,
2013-03-23 04:43:00,40.2,10.5,29.88,SW,232,0.0,4.0,29,0.00,,,0.00,VWS V14.01,2013-03-23 10:43:00,
2013-03-23 04:45:00,40.4,9.9,29.89,WSW,238,0.0,4.0,28,0.00,,,0.00,VWS V14.01,2013-03-23 10:45:00,
2013-03-23 04:48:00,40.4,9.9,29.89,WSW,237,0.0,0.0,28,0.00,,,0.00,VWS V14.01,2013-03-23 10:48:00,
2013-03-23 04:53:00,40.1,9.6,29.89,WSW,238,0.0,0.0,28,0.00,,,0.00,VWS V14.01,2013-03-23 10:53:00,
2013-03-23 04:58:00,39.5,9.1,29.89,WSW,241,0.0,3.0,28,0.00,,,0.00,VWS V14.01,2013-03-23 10:58:00,
2013-03-23 05:00:00,39.0,8.7,29.89,WSW,240,0.0,3.0,28,0.00,,,0.00,VWS V14.01,2013-03-23 11:00:00,
2013-03-23 05:03:00,39.0,8.7,29.89,WSW,240,0.0,0.0,28,0.00,,,0.00,VWS V14.01,2013-03-23 11:03:00,
2013-03-23 05:08:00,38.6,8.3,29.88,WSW,240,0.0,3.0,28,0.00,,,0.00,VWS V14.01,2013-03-23 11:08:00,
2013-03-23 05:13:00,38.4,7.3,29.88,WSW,240,0.0,3.0,27,0.00,,,0.00,VWS V14.01,2013-03-23 11:13:00,
2013-03-23 05:15:00,38.4,7.3,29.89,WSW,240,0.0,3.0,27,0.00,,,0.00,VWS V14.01,2013-03-23 11:15:00,
2013-03-23 05:18:00,38.4,7.3,29.88,WSW,240,0.0,0.0,27,0.00,,,0.00,VWS V14.01,2013-03-23 11:18:00,
2013-03-23 05:23:00,38.3,7.3,29.89,WSW,240,0.0,0.0,27,0.00,,,0.00,VWS V14.01,2013-03-23 11:23:00,
2013-03-23 05:28:00,38.1,6.3,29.89,WSW,240,0.0,3.0,26,0.00,,,0.00,VWS V14.01,2013-03-23 11:28:00,
2013-03-23 05:30:00,38.0,6.2,29.88,WSW,240,0.0,3.0,26,0.00,,,0.00,VWS V14.01,2013-03-23 11:30:00,
2013-03-23 05:33:00,37.9,6.1,29.88,WSW,240,0.0,0.0,26,0.00,,,0.00,VWS V14.01,2013-03-23 11:33:00,
2013-03-23 05:38:00,37.4,5.7,29.88,WSW,240,0.0,0.0,26,0.00,,,0.00,VWS V14.01,2013-03-23 11:38:00,
2013-03-23 05:43:00,36.5,5.7,29.88,WSW,240,0.0,0.0,27,0.00,,,0.00,VWS V14.01,2013-03-23 11:43:00,
2013-03-23 05:45:00,35.4,5.6,29.88,WSW,240,0.0,0.0,28,0.00,,,0.00,VWS V14.01,2013-03-23 11:45:00,
2013-03-23 05:48:00,35.2,5.4,29.88,WSW,240,0.0,0.0,28,0.00,,,0.00,VWS V14.01,2013-03-23 11:48:00,
2013-03-23 05:53:00,34.3,5.4,29.88,WSW,240,0.0,0.0,29,0.00,,,0.00,VWS V14.01,2013-03-23 11:53:00,
2013-03-23 05:58:00,34.1,4.4,29.88,WSW,240,0.0,0.0,28,0.00,,,0.00,VWS V14.01,2013-03-23 11:58:00,
2013-03-23 06:00:00,34.4,4.7,29.88,WSW,240,0.0,1.0,28,0.00,,,0.00,VWS V14.01,2013-03-23 12:00:00,
2013-03-23 06:03:00,34.5,4.8,29.88,WSW,240,0.0,1.0,28,0.00,,,0.00,VWS V14.01,2013-03-23 12:03:00,
2013-03-23 06:08:00,35.5,4.8,29.89,WSW,253,3.0,3.0,27,0.00,,,0.00,VWS V14.01,2013-03-23 12:08:00,
2013-03-23 06:13:00,37.3,3.8,29.89,WNW,282,0.0,6.0,24,0.00,,,0.00,VWS V14.01,2013-03-23 12:13:00,
2013-03-23 06:15:00,38.3,3.8,29.89,West,271,0.0,6.0,23,0.00,,,0.00,VWS V14.01,2013-03-23 12:15:00,
2013-03-23 06:18:00,38.4,3.8,29.89,West,271,0.0,2.0,23,0.00,,,0.00,VWS V14.01,2013-03-23 12:18:00,
2013-03-23 06:23:00,38.6,4.9,29.90,West,271,0.0,2.0,24,0.00,,,0.00,VWS V14.01,2013-03-23 12:23:00,
2013-03-23 06:28:00,36.9,4.4,29.90,West,267,1.0,2.0,25,0.00,,,0.00,VWS V14.01,2013-03-23 12:28:00,
2013-03-23 06:30:00,35.3,3.0,29.90,West,264,0.0,3.0,25,0.00,,,0.00,VWS V14.01,2013-03-23 12:30:00,
2013-03-23 06:33:00,35.1,2.8,29.90,West,259,2.0,3.0,25,0.00,,,0.00,VWS V14.01,2013-03-23 12:33:00,
2013-03-23 06:38:00,34.7,2.5,29.91,West,268,5.0,5.0,25,0.00,,,0.00,VWS V14.01,2013-03-23 12:38:00,
2013-03-23 06:43:00,37.6,5.8,29.92,NW,315,1.0,9.0,26,0.00,,,0.00,VWS V14.01,2013-03-23 12:43:00,
2013-03-23 06:45:00,38.6,6.7,29.92,NW,308,3.0,9.0,26,0.00,,,0.00,VWS V14.01,2013-03-23 12:45:00,
2013-03-23 06:48:00,38.6,6.7,29.92,NW,313,3.0,3.0,26,0.00,,,0.00,VWS V14.01,2013-03-23 12:48:00,
2013-03-23 06:53:00,38.4,7.3,29.92,WNW,300,2.0,8.0,27,0.00,,,0.00,VWS V14.01,2013-03-23 12:53:00,
2013-03-23 06:58:00,37.9,6.9,29.93,NW,325,2.0,8.0,27,0.00,,,0.00,VWS V14.01,2013-03-23 12:58:00,
2013-03-23 07:00:00,37.4,7.3,29.93,NNW,331,4.0,14.0,28,0.00,,,0.00,VWS V14.01,2013-03-23 13:00:00,
2013-03-23 07:03:00,37.3,7.2,29.93,NW,313,3.0,9.0,28,0.00,,,0.00,VWS V14.01,2013-03-23 13:03:00,
2013-03-23 07:08:00,36.7,7.4,29.93,WNW,283,4.0,11.0,29,0.00,,,0.00,VWS V14.01,2013-03-23 13:08:00,
2013-03-23 07:13:00,36.3,7.8,29.94,NNW,329,3.0,12.0,30,0.00,,,0.00,VWS V14.01,2013-03-23 13:13:00,
2013-03-23 07:15:00,36.0,7.6,29.94,NNW,330,5.0,13.0,30,0.00,,,0.00,VWS V14.01,2013-03-23 13:15:00,
2013-03-23 07:18:00,35.9,8.2,29.94,NW,319,6.0,10.0,31,0.00,,,0.00,VWS V14.01,2013-03-23 13:18:00,
2013-03-23 07:23:00,35.6,8.0,29.94,WNW,292,7.0,19.0,31,0.00,,,0.00,VWS V14.01,2013-03-23 13:23:00,
2013-03-23 07:28:00,35.4,7.8,29.94,NW,315,3.0,23.0,31,0.00,,,0.00,VWS V14.01,2013-03-23 13:28:00,
2013-03-23 07:30:00,35.3,7.7,29.95,WNW,301,1.0,23.0,31,0.00,,,0.00,VWS V14.01,2013-03-23 13:30:00,
2013-03-23 07:34:00,35.3,7.7,29.95,WNW,290,17.0,18.0,31,0.00,,,0.00,VWS V14.01,2013-03-23 13:34:00,
2013-03-23 07:39:00,35.3,7.7,29.95,WNW,296,7.0,18.0,31,0.00,,,0.00,VWS V14.01,2013-03-23 13:39:00,
2013-03-23 07:44:00,35.4,7.8,29.95,WNW,292,2.0,21.0,31,0.00,,,0.00,VWS V14.01,2013-03-23 13:44:00,
2013-03-23 07:45:00,35.4,7.8,29.96,NW,309,5.0,22.0,31,0.00,,,0.00,VWS V14.01,2013-03-23 13:45:00,
2013-03-23 07:49:00,35.4,7.8,29.96,North,5,1.0,5.0,31,0.00,,,0.00,VWS V14.01,2013-03-23 13:49:00,
2013-03-23 07:54:00,35.5,7.9,29.95,NNW,339,2.0,15.0,31,0.00,,,0.00,VWS V14.01,2013-03-23 13:54:00,
2013-03-23 07:59:00,35.6,8.0,29.96,NNW,342,2.0,16.0,31,0.00,,,0.00,VWS V14.01,2013-03-23 13:59:00,
2013-03-23 08:00:00,35.6,8.0,29.96,NW,319,1.0,16.0,31,0.00,,,0.00,VWS V14.01,2013-03-23 14:00:00,
2013-03-23 08:04:00,35.6,8.0,29.96,NW,309,3.0,6.0,31,0.00,,,0.00,VWS V14.01,2013-03-23 14:04:00,
2013-03-23 08:09:00,35.7,7.3,29.97,WNW,286,1.0,14.0,30,0.00,,,0.00,VWS V14.01,2013-03-23 14:09:00,
2013-03-23 08:14:00,35.5,7.2,29.98,NW,326,5.0,14.0,30,0.00,,,0.00,VWS V14.01,2013-03-23 14:14:00,
2013-03-23 08:15:00,35.3,7.7,29.98,NW,309,0.0,18.0,31,0.00,,,0.00,VWS V14.01,2013-03-23 14:15:00,
2013-03-23 08:19:00,35.3,7.7,29.98,NW,315,17.0,17.0,31,0.00,,,0.00,VWS V14.01,2013-03-23 14:19:00,
2013-03-23 08:24:00,35.5,7.9,29.99,NNE,15,1.0,22.0,31,0.00,,,0.00,VWS V14.01,2013-03-23 14:24:00,
2013-03-23 08:29:00,35.5,7.2,29.99,NNW,333,2.0,22.0,30,0.00,,,0.00,VWS V14.01,2013-03-23 14:29:00,
2013-03-23 08:30:00,35.5,7.2,29.99,WNW,297,10.0,22.0,30,0.00,,,0.00,VWS V14.01,2013-03-23 14:30:00,
2013-03-23 08:34:00,35.4,7.1,29.99,West,267,12.0,15.0,30,0.00,,,0.00,VWS V14.01,2013-03-23 14:34:00,
2013-03-23 08:39:00,35.6,7.2,30.00,NNW,336,0.0,15.0,30,0.00,,,0.00,VWS V14.01,2013-03-23 14:39:00,
2013-03-23 08:44:00,35.7,7.3,30.00,WNW,294,1.0,18.0,30,0.00,,,0.00,VWS V14.01,2013-03-23 14:44:00,
2013-03-23 08:45:00,35.8,7.4,30.00,WNW,295,22.0,25.0,30,0.00,,,0.00,VWS V14.01,2013-03-23 14:45:00,
2013-03-23 08:49:00,35.7,7.3,29.99,NW,304,11.0,22.0,30,0.00,,,0.00,VWS V14.01,2013-03-23 14:49:00,
2013-03-23 08:54:00,35.7,6.6,29.99,NW,320,19.0,22.0,29,0.00,,,0.00,VWS V14.01,2013-03-23 14:54:00,
2013-03-23 08:59:00,35.8,6.7,29.99,West,276,20.0,22.0,29,0.00,,,0.00,VWS V14.01,2013-03-23 14:59:00,
2013-03-23 09:00:00,36.0,6.8,29.99,West,275,9.0,22.0,29,0.00,,,0.00,VWS V14.01,2013-03-23 15:00:00,
2013-03-23 09:04:00,36.2,7.0,29.99,WNW,290,20.0,22.0,29,0.00,,,0.00,VWS V14.01,2013-03-23 15:04:00,
2013-03-23 09:09:00,36.3,7.1,29.99,NW,304,8.0,26.0,29,0.00,,,0.00,VWS V14.01,2013-03-23 15:09:00,
2013-03-23 09:14:00,36.2,7.0,30.00,NW,310,8.0,26.0,29,0.00,,,0.00,VWS V14.01,2013-03-23 15:14:00,
2013-03-23 09:15:00,36.6,6.6,30.00,West,276,15.0,26.0,28,0.00,,,0.00,VWS V14.01,2013-03-23 15:15:00,
2013-03-23 09:19:00,36.8,6.8,30.00,West,280,7.0,17.0,28,0.00,,,0.00,VWS V14.01,2013-03-23 15:19:00,
2013-03-23 09:24:00,37.5,6.6,30.00,West,275,2.0,17.0,27,0.00,,,0.00,VWS V14.01,2013-03-23 15:24:00,
2013-03-23 09:29:00,37.6,6.7,30.00,WNW,295,13.0,22.0,27,0.00,,,0.00,VWS V14.01,2013-03-23 15:29:00,
2013-03-23 09:30:00,37.6,6.7,30.00,WNW,292,18.0,22.0,27,0.00,,,0.00,VWS V14.01,2013-03-23 15:30:00,
2013-03-23 09:34:00,37.8,6.8,30.00,NNW,329,13.0,23.0,27,0.00,,,0.00,VWS V14.01,2013-03-23 15:34:00,
2013-03-23 09:39:00,37.3,6.4,30.00,WNW,288,11.0,26.0,27,0.00,,,0.00,VWS V14.01,2013-03-23 15:39:00,
2013-03-23 09:44:00,37.1,6.2,30.01,WNW,294,16.0,26.0,27,0.00,,,0.00,VWS V14.01,2013-03-23 15:44:00,
2013-03-23 09:45:00,37.1,6.2,30.01,NW,316,2.0,26.0,27,0.00,,,0.00,VWS V14.01,2013-03-23 15:45:00,
2013-03-23 09:49:00,37.5,6.6,30.01,NW,305,8.0,9.0,27,0.00,,,0.00,VWS V14.01,2013-03-23 15:49:00,
2013-03-23 09:54:00,37.4,5.7,30.02,WNW,302,12.0,23.0,26,0.00,,,0.00,VWS V14.01,2013-03-23 15:54:00,
2013-03-23 09:59:00,37.7,5.9,30.02,West,272,12.0,23.0,26,0.00,,,0.00,VWS V14.01,2013-03-23 15:59:00,
2013-03-23 10:00:00,37.6,5.8,30.02,West,272,15.0,23.0,26,0.00,,,0.00,VWS V14.01,2013-03-23 16:00:00,
2013-03-23 10:04:00,37.5,5.8,30.02,NW,319,1.0,16.0,26,0.00,,,0.00,VWS V14.01,2013-03-23 16:04:00,
2013-03-23 10:09:00,38.0,6.2,30.02,West,271,9.0,17.0,26,0.00,,,0.00,VWS V14.01,2013-03-23 16:09:00,
2013-03-23 10:14:00,38.3,5.6,30.02,West,272,6.0,18.0,25,0.00,,,0.00,VWS V14.01,2013-03-23 16:14:00,
2013-03-23 10:15:00,38.2,5.5,30.02,WNW,302,6.0,19.0,25,0.00,,,0.00,VWS V14.01,2013-03-23 16:15:00,
2013-03-23 10:19:00,38.3,5.6,30.02,West,274,8.0,18.0,25,0.00,,,0.00,VWS V14.01,2013-03-23 16:19:00,
2013-03-23 10:24:00,38.4,5.7,30.03,WSW,256,5.0,18.0,25,0.00,,,0.00,VWS V14.01,2013-03-23 16:24:00,
2013-03-23 10:29:00,38.2,5.5,30.02,NW,307,3.0,24.0,25,0.00,,,0.00,VWS V14.01,2013-03-23 16:29:00,
2013-03-23 10:30:00,38.5,5.8,30.03,West,276,8.0,24.0,25,0.00,,,0.00,VWS V14.01,2013-03-23 16:30:00,
2013-03-23 10:34:00,38.7,5.9,30.02,West,281,11.0,15.0,25,0.00,,,0.00,VWS V14.01,2013-03-23 16:34:00,
2013-03-23 10:39:00,39.3,5.5,30.02,NW,306,3.0,16.0,24,0.00,,,0.00,VWS V14.01,2013-03-23 16:39:00,
2013-03-23 10:44:00,39.3,5.5,30.02,WNW,288,18.0,24.0,24,0.00,,,0.00,VWS V14.01,2013-03-23 16:44:00,
2013-03-23 10:45:00,39.0,5.3,30.01,West,274,14.0,31.0,24,0.00,,,0.00,VWS V14.01,2013-03-23 16:45:00,
2013-03-23 10:49:00,39.1,5.4,30.01,West,273,10.0,24.0,24,0.00,,,0.00,VWS V14.01,2013-03-23 16:49:00,
2013-03-23 10:54:00,39.3,5.5,30.01,WNW,302,9.0,28.0,24,0.00,,,0.00,VWS V14.01,2013-03-23 16:54:00,
2013-03-23 10:59:00,39.3,4.6,30.01,NNW,340,19.0,28.0,23,0.00,,,0.00,VWS V14.01,2013-03-23 16:59:00,
2013-03-23 11:00:00,39.2,5.4,30.01,West,281,7.0,28.0,24,0.00,,,0.00,VWS V14.01,2013-03-23 17:00:00,
2013-03-23 11:04:00,39.6,4.9,30.01,NW,309,14.0,19.0,23,0.00,,,0.00,VWS V14.01,2013-03-23 17:04:00,
2013-03-23 11:09:00,39.6,4.9,30.01,West,278,5.0,29.0,23,0.00,,,0.00,VWS V14.01,2013-03-23 17:09:00,
2013-03-23 11:14:00,39.7,4.9,30.01,West,271,9.0,31.0,23,0.00,,,0.00,VWS V14.01,2013-03-23 17:14:00,
2013-03-23 11:15:00,39.6,4.9,30.01,WNW,291,19.0,33.0,23,0.00,,,0.00,VWS V14.01,2013-03-23 17:15:00,
2013-03-23 11:19:00,39.3,4.6,30.02,West,280,24.0,37.0,23,0.00,,,0.00,VWS V14.01,2013-03-23 17:19:00,
2013-03-23 11:25:00,39.3,4.6,30.02,West,281,17.0,37.0,23,0.00,,,0.00,VWS V14.01,2013-03-23 17:25:00,
2013-03-23 11:30:00,40.0,5.2,30.02,West,266,19.0,37.0,23,0.00,,,0.00,VWS V14.01,2013-03-23 17:30:00,
2013-03-23 11:35:00,39.8,4.1,30.02,WNW,301,15.0,35.0,22,0.00,,,0.00,VWS V14.01,2013-03-23 17:35:00,
2013-03-23 11:40:00,40.2,4.4,30.02,West,277,23.0,35.0,22,0.00,,,0.00,VWS V14.01,2013-03-23 17:40:00,
2013-03-23 11:45:00,39.9,4.2,30.03,West,271,12.0,35.0,22,0.00,,,0.00,VWS V14.01,2013-03-23 17:45:00,
2013-03-23 11:50:00,40.4,3.6,30.03,NW,321,13.0,28.0,21,0.00,,,0.00,VWS V14.01,2013-03-23 17:50:00,
2013-03-23 11:55:00,40.7,3.8,30.03,WNW,284,27.0,28.0,21,0.00,,,0.00,VWS V14.01,2013-03-23 17:55:00,
2013-03-23 12:00:00,39.9,4.2,30.03,North,360,1.0,30.0,22,0.00,,,0.00,VWS V14.01,2013-03-23 18:00:00,
2013-03-23 12:05:00,40.3,4.5,30.03,NNW,340,15.0,25.0,22,0.00,,,0.00,VWS V14.01,2013-03-23 18:05:00,
2013-03-23 12:10:00,40.0,4.2,30.03,WNW,294,10.0,25.0,22,0.00,,,0.00,VWS V14.01,2013-03-23 18:10:00,
2013-03-23 12:15:00,40.1,4.3,30.03,West,279,14.0,31.0,22,0.00,,,0.00,VWS V14.01,2013-03-23 18:15:00,
2013-03-23 12:20:00,40.4,3.6,30.05,NW,313,13.0,30.0,21,0.00,,,0.00,VWS V14.01,2013-03-23 18:20:00,
2013-03-23 12:25:00,39.8,4.1,30.04,NW,322,17.0,30.0,22,0.00,,,0.00,VWS V14.01,2013-03-23 18:25:00,
2013-03-23 12:30:00,39.7,4.0,30.04,NW,308,19.0,31.0,22,0.00,,,0.00,VWS V14.01,2013-03-23 18:30:00,
2013-03-23 12:35:00,40.3,4.5,30.05,WNW,303,22.0,29.0,22,0.00,,,0.00,VWS V14.01,2013-03-23 18:35:00,
2013-03-23 12:40:00,39.9,4.2,30.05,WSW,247,9.0,29.0,22,0.00,,,0.00,VWS V14.01,2013-03-23 18:40:00,
2013-03-23 12:45:00,40.1,5.3,30.05,West,280,17.0,29.0,23,0.00,,,0.00,VWS V14.01,2013-03-23 18:45:00,
2013-03-23 12:50:00,40.6,4.7,30.06,West,273,16.0,26.0,22,0.00,,,0.00,VWS V14.01,2013-03-23 18:50:00,
2013-03-23 12:55:00,40.8,4.9,30.06,WNW,297,1.0,26.0,22,0.00,,,0.00,VWS V14.01,2013-03-23 18:55:00,
2013-03-23 13:00:00,40.9,4.0,30.06,WNW,296,11.0,29.0,21,0.00,,,0.00,VWS V14.01,2013-03-23 19:00:00,
2013-03-23 13:05:00,40.2,3.4,30.06,West,279,17.0,32.0,21,0.00,,,0.00,VWS V14.01,2013-03-23 19:05:00,
2013-03-23 13:10:00,39.8,3.1,30.07,NW,326,6.0,32.0,21,0.00,,,0.00,VWS V14.01,2013-03-23 19:10:00,
2013-03-23 13:15:00,39.8,3.1,30.07,NW,307,16.0,32.0,21,0.00,,,0.00,VWS V14.01,2013-03-23 19:15:00,
2013-03-23 13:20:00,39.7,3.0,30.08,WNW,300,22.0,30.0,21,0.00,,,0.00,VWS V14.01,2013-03-23 19:20:00,
2013-03-23 13:25:00,39.7,4.0,30.08,West,273,23.0,30.0,22,0.00,,,0.00,VWS V14.01,2013-03-23 19:25:00,
2013-03-23 13:30:00,39.1,3.5,30.08,NW,318,18.0,34.0,22,0.00,,,0.00,VWS V14.01,2013-03-23 19:30:00,
2013-03-23 13:35:00,39.3,3.7,30.08,WNW,283,13.0,28.0,22,0.00,,,0.00,VWS V14.01,2013-03-23 19:35:00,
2013-03-23 13:40:00,39.6,3.9,30.08,NW,319,19.0,33.0,22,0.00,,,0.00,VWS V14.01,2013-03-23 19:40:00,
2013-03-23 13:45:00,39.6,3.9,30.08,WNW,288,28.0,33.0,22,0.00,,,0.00,VWS V14.01,2013-03-23 19:45:00,
2013-03-23 13:50:00,40.2,3.4,30.08,WNW,286,17.0,32.0,21,0.00,,,0.00,VWS V14.01,2013-03-23 19:50:00,
2013-03-23 13:55:00,40.0,2.2,30.08,WNW,302,11.0,34.0,20,0.00,,,0.00,VWS V14.01,2013-03-23 19:55:00,
2013-03-23 14:00:00,40.6,2.7,30.08,NW,310,12.0,39.0,20,0.00,,,0.00,VWS V14.01,2013-03-23 20:00:00,
2013-03-23 14:05:00,41.0,1.9,30.08,NW,309,35.0,37.0,19,0.00,,,0.00,VWS V14.01,2013-03-23 20:05:00,
2013-03-23 14:10:00,40.7,0.5,30.09,WNW,288,17.0,37.0,18,0.00,,,0.00,VWS V14.01,2013-03-23 20:10:00,
2013-03-23 14:15:00,40.7,-0.7,30.09,NNW,334,18.0,37.0,17,0.00,,,0.00,VWS V14.01,2013-03-23 20:15:00,
2013-03-23 14:20:00,40.6,-0.8,30.09,WNW,296,22.0,37.0,17,0.00,,,0.00,VWS V14.01,2013-03-23 20:20:00,
2013-03-23 14:25:00,40.1,-2.5,30.09,NW,304,12.0,40.0,16,0.00,,,0.00,VWS V14.01,2013-03-23 20:25:00,
2013-03-23 14:30:00,40.6,-2.1,30.10,NW,310,19.0,40.0,16,0.00,,,0.00,VWS V14.01,2013-03-23 20:30:00,
2013-03-23 14:35:00,40.2,-2.4,30.10,NW,311,26.0,30.0,16,0.00,,,0.00,VWS V14.01,2013-03-23 20:35:00,
2013-03-23 14:40:00,39.9,-2.6,30.10,WNW,284,18.0,34.0,16,0.00,,,0.00,VWS V14.01,2013-03-23 20:40:00,
2013-03-23 14:45:00,40.2,-3.8,30.10,WNW,286,17.0,34.0,15,0.00,,,0.00,VWS V14.01,2013-03-23 20:45:00,
2013-03-23 14:50:00,40.7,-3.3,30.11,West,275,16.0,23.0,15,0.00,,,0.00,VWS V14.01,2013-03-23 20:50:00,
2013-03-23 14:55:00,40.5,-4.9,30.11,NW,309,14.0,33.0,14,0.00,,,0.00,VWS V14.01,2013-03-23 20:55:00,
2013-03-23 15:00:00,40.5,-4.9,30.11,NW,321,19.0,33.0,14,0.00,,,0.00,VWS V14.01,2013-03-23 21:00:00,
2013-03-23 15:05:00,40.4,-5.0,30.12,West,264,11.0,27.0,14,0.00,,,0.00,VWS V14.01,2013-03-23 21:05:00,
2013-03-23 15:10:00,40.6,-4.9,30.11,WNW,298,9.0,30.0,14,0.00,,,0.00,VWS V14.01,2013-03-23 21:10:00,
2013-03-23 15:15:00,40.0,-6.9,30.11,NNW,330,11.0,36.0,13,0.00,,,0.00,VWS V14.01,2013-03-23 21:15:00,
2013-03-23 15:16:00,40.2,-6.7,30.12,WNW,286,19.0,36.0,13,0.00,,,0.00,VWS V14.01,2013-03-23 21:16:00,
2013-03-23 15:21:00,40.2,-8.4,30.12,WNW,290,13.0,38.0,12,0.00,,,0.00,VWS V14.01,2013-03-23 21:21:00,
2013-03-23 15:26:00,40.3,-6.6,30.13,West,281,19.0,38.0,13,0.00,,,0.00,VWS V14.01,2013-03-23 21:26:00,
2013-03-23 15:30:00,40.4,-6.6,30.13,WNW,294,29.0,38.0,13,0.00,,,0.00,VWS V14.01,2013-03-23 21:30:00,
2013-03-23 15:31:00,40.2,-6.7,30.12,North,355,12.0,38.0,13,0.00,,,0.00,VWS V14.01,2013-03-23 21:31:00,
2013-03-23 15:36:00,39.9,-6.9,30.13,West,274,28.0,35.0,13,0.00,,,0.00,VWS V14.01,2013-03-23 21:36:00,
2013-03-23 15:41:00,40.4,-6.6,30.14,West,277,25.0,35.0,13,0.00,,,0.00,VWS V14.01,2013-03-23 21:41:00,
2013-03-23 15:45:00,40.5,-6.5,30.13,NW,306,28.0,35.0,13,0.00,,,0.00,VWS V14.01,2013-03-23 21:45:00,
2013-03-23 15:47:00,40.2,-6.7,30.12,West,278,29.0,35.0,13,0.00,,,0.00,VWS V14.01,2013-03-23 21:47:00,
2013-03-23 15:51:00,40.3,-6.6,30.14,WNW,294,12.0,29.0,13,0.00,,,0.00,VWS V14.01,2013-03-23 21:51:00,
2013-03-23 15:57:00,40.1,-6.8,30.13,WNW,290,21.0,31.0,13,0.00,,,0.00,VWS V14.01,2013-03-23 21:57:00,
2013-03-23 16:00:00,40.2,-5.2,30.14,NW,311,15.0,31.0,14,0.00,,,0.00,VWS V14.01,2013-03-23 22:00:00,
2013-03-23 16:02:00,39.9,-5.4,30.13,NW,304,4.0,31.0,14,0.00,,,0.00,VWS V14.01,2013-03-23 22:02:00,
2013-03-23 16:07:00,40.2,-5.2,30.14,WNW,286,22.0,31.0,14,0.00,,,0.00,VWS V14.01,2013-03-23 22:07:00,
2013-03-23 16:12:00,40.4,-5.0,30.14,North,360,18.0,31.0,14,0.00,,,0.00,VWS V14.01,2013-03-23 22:12:00,
2013-03-23 16:15:00,40.4,-5.0,30.14,NW,321,2.0,31.0,14,0.00,,,0.00,VWS V14.01,2013-03-23 22:15:00,
2013-03-23 16:17:00,40.4,-5.0,30.14,NNW,338,12.0,31.0,14,0.00,,,0.00,VWS V14.01,2013-03-23 22:17:00,
2013-03-23 16:22:00,40.1,-5.3,30.15,WNW,298,22.0,33.0,14,0.00,,,0.00,VWS V14.01,2013-03-23 22:22:00,
2013-03-23 16:27:00,39.5,-5.7,30.15,NW,325,1.0,33.0,14,0.00,,,0.00,VWS V14.01,2013-03-23 22:27:00,
2013-03-23 16:30:00,39.9,-5.4,30.16,West,263,8.0,33.0,14,0.00,,,0.00,VWS V14.01,2013-03-23 22:30:00,
2013-03-23 16:32:00,40.1,-5.3,30.16,NW,309,17.0,33.0,14,0.00,,,0.00,VWS V14.01,2013-03-23 22:32:00,
2013-03-23 16:37:00,39.7,-5.6,30.17,West,279,20.0,31.0,14,0.00,,,0.00,VWS V14.01,2013-03-23 22:37:00,
2013-03-23 16:42:00,40.1,-5.3,30.16,NNW,336,12.0,31.0,14,0.00,,,0.00,VWS V14.01,2013-03-23 22:42:00,
2013-03-23 16:45:00,40.4,-5.0,30.16,West,279,18.0,31.0,14,0.00,,,0.00,VWS V14.01,2013-03-23 22:45:00,
2013-03-23 16:47:00,40.5,-4.9,30.16,WNW,292,17.0,31.0,14,0.00,,,0.00,VWS V14.01,2013-03-23 22:47:00,
2013-03-23 16:52:00,40.4,-5.0,30.16,WNW,289,19.0,33.0,14,0.00,,,0.00,VWS V14.01,2013-03-23 22:52:00,
2013-03-23 16:57:00,39.8,-5.5,30.16,NW,307,10.0,33.0,14,0.00,,,0.00,VWS V14.01,2013-03-23 22:57:00,
2013-03-23 17:00:00,40.6,-4.9,30.17,NW,309,17.0,33.0,14,0.00,,,0.00,VWS V14.01,2013-03-23 23:00:00,
2013-03-23 17:02:00,40.5,-4.9,30.17,WNW,294,20.0,33.0,14,0.00,,,0.00,VWS V14.01,2013-03-23 23:02:00,
2013-03-23 17:07:00,40.2,-5.2,30.17,NW,323,7.0,26.0,14,0.00,,,0.00,VWS V14.01,2013-03-23 23:07:00,
2013-03-23 17:12:00,40.4,-5.0,30.17,West,262,15.0,26.0,14,0.00,,,0.00,VWS V14.01,2013-03-23 23:12:00,
2013-03-23 17:15:00,40.0,-5.3,30.18,NW,325,15.0,26.0,14,0.00,,,0.00,VWS V14.01,2013-03-23 23:15:00,
2013-03-23 17:17:00,40.0,-5.3,30.18,NNW,331,15.0,26.0,14,0.00,,,0.00,VWS V14.01,2013-03-23 23:17:00,
2013-03-23 17:22:00,39.8,-5.5,30.18,WNW,298,17.0,28.0,14,0.00,,,0.00,VWS V14.01,2013-03-23 23:22:00,
2013-03-23 17:27:00,40.1,-5.3,30.18,WNW,294,16.0,28.0,14,0.00,,,0.00,VWS V14.01,2013-03-23 23:27:00,
2013-03-23 17:30:00,40.0,-5.3,30.18,WNW,290,18.0,28.0,14,0.00,,,0.00,VWS V14.01,2013-03-23 23:30:00,
2013-03-23 17:32:00,40.0,-5.3,30.18,West,281,11.0,28.0,14,0.00,,,0.00,VWS V14.01,2013-03-23 23:32:00,
2013-03-23 17:37:00,39.8,-5.5,30.19,WNW,292,15.0,30.0,14,0.00,,,0.00,VWS V14.01,2013-03-23 23:37:00,
2013-03-23 17:42:00,39.8,-5.5,30.19,WNW,297,15.0,31.0,14,0.00,,,0.00,VWS V14.01,2013-03-23 23:42:00,
2013-03-23 17:45:00,39.8,-5.5,30.19,WNW,298,14.0,31.0,14,0.00,,,0.00,VWS V14.01,2013-03-23 23:45:00,
2013-03-23 17:47:00,39.8,-5.5,30.19,NW,317,16.0,31.0,14,0.00,,,0.00,VWS V14.01,2013-03-23 23:47:00,
2013-03-23 17:52:00,39.7,-5.6,30.19,NW,309,13.0,23.0,14,0.00,,,0.00,VWS V14.01,2013-03-23 23:52:00,
2013-03-23 17:57:00,39.8,-5.5,30.20,WNW,295,19.0,24.0,14,0.00,,,0.00,VWS V14.01,2013-03-23 23:57:00,
2013-03-23 18:00:00,39.6,-5.7,30.20,NW,307,6.0,25.0,14,0.00,,,0.00,VWS V14.01,2013-03-24 00:00:00,
2013-03-23 18:02:00,39.6,-5.7,30.20,West,272,6.0,25.0,14,0.00,,,0.00,VWS V14.01,2013-03-24 00:02:00,
2013-03-23 18:07:00,39.6,-5.7,30.20,NW,304,9.0,21.0,14,0.00,,,0.00,VWS V14.01,2013-03-24 00:07:00,
2013-03-23 18:12:00,39.6,-5.7,30.21,West,276,12.0,27.0,14,0.00,,,0.00,VWS V14.01,2013-03-24 00:12:00,
2013-03-23 18:15:00,39.3,-5.9,30.21,NW,306,18.0,27.0,14,0.00,,,0.00,VWS V14.01,2013-03-24 00:15:00,
2013-03-23 18:17:00,39.3,-5.9,30.21,West,281,14.0,27.0,14,0.00,,,0.00,VWS V14.01,2013-03-24 00:17:00,
2013-03-23 18:23:00,39.2,-6.0,30.22,North,355,0.0,25.0,14,0.00,,,0.00,VWS V14.01,2013-03-24 00:23:00,
2013-03-23 18:28:00,39.1,-6.1,30.21,West,276,20.0,27.0,14,0.00,,,0.00,VWS V14.01,2013-03-24 00:28:00,
2013-03-23 18:30:00,38.8,-6.3,30.22,West,279,17.0,27.0,14,0.00,,,0.00,VWS V14.01,2013-03-24 00:30:00,
2013-03-23 18:33:00,38.8,-6.3,30.22,West,279,17.0,27.0,14,0.00,,,0.00,VWS V14.01,2013-03-24 00:33:00,
2013-03-23 18:38:00,38.5,-6.6,30.22,WNW,290,2.0,21.0,14,0.00,,,0.00,VWS V14.01,2013-03-24 00:38:00,
2013-03-23 18:43:00,38.3,-6.7,30.23,West,271,5.0,21.0,14,0.00,,,0.00,VWS V14.01,2013-03-24 00:43:00,
2013-03-23 18:45:00,38.2,-6.8,30.23,NNW,327,16.0,26.0,14,0.00,,,0.00,VWS V14.01,2013-03-24 00:45:00,
2013-03-23 18:48:00,38.2,-6.8,30.23,NNW,327,16.0,16.0,14,0.00,,,0.00,VWS V14.01,2013-03-24 00:48:00,
2013-03-23 18:53:00,38.0,-6.9,30.24,North,355,1.0,27.0,14,0.00,,,0.00,VWS V14.01,2013-03-24 00:53:00,
2013-03-23 18:58:00,37.9,-7.0,30.24,WNW,288,2.0,27.0,14,0.00,,,0.00,VWS V14.01,2013-03-24 00:58:00,
2013-03-23 19:00:00,37.8,-7.1,30.25,WNW,291,16.0,27.0,14,0.00,,,0.00,VWS V14.01,2013-03-24 01:00:00,
2013-03-23 19:03:00,37.8,-7.1,30.25,NW,324,9.0,16.0,14,0.00,,,0.00,VWS V14.01,2013-03-24 01:03:00,
2013-03-23 19:08:00,37.6,-5.9,30.25,West,277,1.0,19.0,15,0.00,,,0.00,VWS V14.01,2013-03-24 01:08:00,
2013-03-23 19:13:00,37.5,-5.9,30.26,West,281,19.0,23.0,15,0.00,,,0.00,VWS V14.01,2013-03-24 01:13:00,
2013-03-23 19:15:00,37.3,-7.5,30.26,NW,325,12.0,25.0,14,0.00,,,0.00,VWS V14.01,2013-03-24 01:15:00,
2013-03-23 19:18:00,37.3,-7.5,30.26,NNW,339,18.0,18.0,14,0.00,,,0.00,VWS V14.01,2013-03-24 01:18:00,
2013-03-23 19:23:00,37.2,-7.6,30.26,NW,315,7.0,22.0,14,0.00,,,0.00,VWS V14.01,2013-03-24 01:23:00,
2013-03-23 19:28:00,37.0,-6.3,30.26,NW,313,3.0,22.0,15,0.00,,,0.00,VWS V14.01,2013-03-24 01:28:00,
2013-03-23 19:30:00,36.8,-6.5,30.27,West,267,1.0,22.0,15,0.00,,,0.00,VWS V14.01,2013-03-24 01:30:00,
2013-03-23 19:33:00,36.8,-6.5,30.27,NW,314,1.0,3.0,15,0.00,,,0.00,VWS V14.01,2013-03-24 01:33:00,
2013-03-23 19:38:00,36.7,-6.6,30.27,WNW,297,9.0,20.0,15,0.00,,,0.00,VWS V14.01,2013-03-24 01:38:00,
2013-03-23 19:43:00,36.5,-6.8,30.27,NW,311,0.0,20.0,15,0.00,,,0.00,VWS V14.01,2013-03-24 01:43:00,
2013-03-23 19:45:00,36.4,-6.8,30.28,WNW,296,1.0,20.0,15,0.00,,,0.00,VWS V14.01,2013-03-24 01:45:00,
2013-03-23 19:48:00,36.4,-6.8,30.28,NW,314,2.0,2.0,15,0.00,,,0.00,VWS V14.01,2013-03-24 01:48:00,
2013-03-23 19:53:00,36.2,-7.0,30.28,NNW,327,5.0,19.0,15,0.00,,,0.00,VWS V14.01,2013-03-24 01:53:00,
2013-03-23 19:58:00,36.1,-7.1,30.29,NW,306,2.0,19.0,15,0.00,,,0.00,VWS V14.01,2013-03-24 01:58:00,
2013-03-23 20:00:00,35.9,-7.2,30.29,NW,314,8.0,19.0,15,0.00,,,0.00,VWS V14.01,2013-03-24 02:00:00,
2013-03-23 20:03:00,35.9,-7.2,30.29,WNW,295,1.0,9.0,15,0.00,,,0.00,VWS V14.01,2013-03-24 02:03:00,
2013-03-23 20:08:00,35.6,-7.5,30.29,NW,321,3.0,13.0,15,0.00,,,0.00,VWS V14.01,2013-03-24 02:08:00,
2013-03-23 20:13:00,35.4,-7.6,30.30,WNW,291,15.0,15.0,15,0.00,,,0.00,VWS V14.01,2013-03-24 02:13:00,
2013-03-23 20:15:00,35.4,-7.6,30.30,NW,315,4.0,16.0,15,0.00,,,0.00,VWS V14.01,2013-03-24 02:15:00,
2013-03-23 20:18:00,35.4,-7.6,30.30,NW,304,9.0,15.0,15,0.00,,,0.00,VWS V14.01,2013-03-24 02:18:00,
2013-03-23 20:23:00,35.3,-7.7,30.30,West,273,10.0,16.0,15,0.00,,,0.00,VWS V14.01,2013-03-24 02:23:00,
2013-03-23 20:28:00,35.2,-7.8,30.30,NW,304,3.0,16.0,15,0.00,,,0.00,VWS V14.01,2013-03-24 02:28:00,
2013-03-23 20:30:00,35.0,-8.0,30.30,NW,313,3.0,16.0,15,0.00,,,0.00,VWS V14.01,2013-03-24 02:30:00,
2013-03-23 20:33:00,35.0,-8.0,30.30,NW,318,1.0,3.0,15,0.00,,,0.00,VWS V14.01,2013-03-24 02:33:00,
2013-03-23 20:38:00,34.8,-8.1,30.31,NW,317,1.0,5.0,15,0.00,,,0.00,VWS V14.01,2013-03-24 02:38:00,
2013-03-23 20:43:00,34.5,-8.4,30.31,NW,309,0.0,6.0,15,0.00,,,0.00,VWS V14.01,2013-03-24 02:43:00,
2013-03-23 20:45:00,34.4,-8.5,30.32,NW,319,0.0,6.0,15,0.00,,,0.00,VWS V14.01,2013-03-24 02:45:00,
2013-03-23 20:48:00,34.4,-8.5,30.32,NW,323,2.0,2.0,15,0.00,,,0.00,VWS V14.01,2013-03-24 02:48:00,
2013-03-23 20:53:00,34.1,-8.7,30.32,NW,306,0.0,4.0,15,0.00,,,0.00,VWS V14.01,2013-03-24 02:53:00,
2013-03-23 20:58:00,33.9,-8.9,30.32,NW,307,2.0,5.0,15,0.00,,,0.00,VWS V14.01,2013-03-24 02:58:00,
2013-03-23 21:00:00,33.8,-8.9,30.32,WNW,300,0.0,5.0,15,0.00,,,0.00,VWS V14.01,2013-03-24 03:00:00,
2013-03-23 21:03:00,33.8,-8.9,30.32,NW,315,0.0,1.0,15,0.00,,,0.00,VWS V14.01,2013-03-24 03:03:00,
2013-03-23 21:08:00,33.7,-9.0,30.32,WNW,300,0.0,3.0,15,0.00,,,0.00,VWS V14.01,2013-03-24 03:08:00,
2013-03-23 21:13:00,33.5,-9.2,30.33,NW,315,0.0,3.0,15,0.00,,,0.00,VWS V14.01,2013-03-24 03:13:00,
2013-03-23 21:15:00,33.3,-8.0,30.33,NW,308,0.0,3.0,16,0.00,,,0.00,VWS V14.01,2013-03-24 03:15:00,
2013-03-23 21:18:00,33.3,-8.0,30.34,NW,307,0.0,0.0,16,0.00,,,0.00,VWS V14.01,2013-03-24 03:18:00,
2013-03-23 21:23:00,33.1,-8.2,30.34,West,274,0.0,2.0,16,0.00,,,0.00,VWS V14.01,2013-03-24 03:23:00,
2013-03-23 21:28:00,32.7,-8.5,30.35,West,274,0.0,2.0,16,0.00,,,0.00,VWS V14.01,2013-03-24 03:28:00,
2013-03-23 21:30:00,32.3,-8.9,30.36,West,274,0.0,2.0,16,0.00,,,0.00,VWS V14.01,2013-03-24 03:30:00,
2013-03-23 21:33:00,32.3,-8.9,30.36,West,274,0.0,0.0,16,0.00,,,0.00,VWS V14.01,2013-03-24 03:33:00,
2013-03-23 21:38:00,31.5,-8.3,30.36,West,274,0.0,0.0,17,0.00,,,0.00,VWS V14.01,2013-03-24 03:38:00,
2013-03-23 21:43:00,30.7,-8.9,30.36,West,274,0.0,0.0,17,0.00,,,0.00,VWS V14.01,2013-03-24 03:43:00,
2013-03-23 21:45:00,30.0,-9.5,30.37,West,272,0.0,0.0,17,0.00,,,0.00,VWS V14.01,2013-03-24 03:45:00,
2013-03-23 21:48:00,29.9,-9.6,30.36,West,272,0.0,0.0,17,0.00,,,0.00,VWS V14.01,2013-03-24 03:48:00,
2013-03-23 21:53:00,29.3,-8.9,30.36,West,272,0.0,0.0,18,0.00,,,0.00,VWS V14.01,2013-03-24 03:53:00,
2013-03-23 21:58:00,29.1,-9.1,30.37,West,272,0.0,0.0,18,0.00,,,0.00,VWS V14.01,2013-03-24 03:58:00,
2013-03-23 22:00:00,29.0,-9.2,30.37,West,272,0.0,0.0,18,0.00,,,0.00,VWS V14.01,2013-03-24 04:00:00,
2013-03-23 22:05:00,29.1,-9.1,30.37,West,272,0.0,0.0,18,0.00,,,0.00,VWS V14.01,2013-03-24 04:05:00,
2013-03-23 22:10:00,29.4,-8.9,30.37,West,272,0.0,0.0,18,0.00,,,0.00,VWS V14.01,2013-03-24 04:10:00,
2013-03-23 22:15:00,29.6,-8.7,30.38,West,272,0.0,0.0,18,0.00,,,0.00,VWS V14.01,2013-03-24 04:15:00,
2013-03-23 22:20:00,29.4,-8.9,30.38,West,272,0.0,0.0,18,0.00,,,0.00,VWS V14.01,2013-03-24 04:20:00,
2013-03-23 22:25:00,29.0,-8.1,30.38,West,272,0.0,0.0,19,0.00,,,0.00,VWS V14.01,2013-03-24 04:25:00,
2013-03-23 22:30:00,28.3,-9.8,30.38,West,272,0.0,0.0,18,0.00,,,0.00,VWS V14.01,2013-03-24 04:30:00,
2013-03-23 22:35:00,27.9,-10.1,30.38,West,272,0.0,0.0,18,0.00,,,0.00,VWS V14.01,2013-03-24 04:35:00,
2013-03-23 22:40:00,27.4,-10.5,30.38,West,272,0.0,0.0,18,0.00,,,0.00,VWS V14.01,2013-03-24 04:40:00,
2013-03-23 22:45:00,27.3,-10.6,30.38,West,272,0.0,0.0,18,0.00,,,0.00,VWS V14.01,2013-03-24 04:45:00,
2013-03-23 22:50:00,27.4,-10.5,30.38,West,272,0.0,0.0,18,0.00,,,0.00,VWS V14.01,2013-03-24 04:50:00,
2013-03-23 22:55:00,27.1,-10.8,30.38,West,273,0.0,0.0,18,0.00,,,0.00,VWS V14.01,2013-03-24 04:55:00,
2013-03-23 23:00:00,26.3,-11.4,30.39,West,273,0.0,0.0,18,0.00,,,0.00,VWS V14.01,2013-03-24 05:00:00,
2013-03-23 23:05:00,25.2,-11.3,30.39,West,280,0.0,0.0,19,0.00,,,0.00,VWS V14.01,2013-03-24 05:05:00,
2013-03-23 23:10:00,24.8,-11.6,30.39,WNW,297,0.0,0.0,19,0.00,,,0.00,VWS V14.01,2013-03-24 05:10:00,
2013-03-23 23:15:00,24.7,-11.7,30.39,NW,313,0.0,0.0,19,0.00,,,0.00,VWS V14.01,2013-03-24 05:15:00,
2013-03-23 23:20:00,24.2,-12.1,30.39,NW,322,0.0,0.0,19,0.00,,,0.00,VWS V14.01,2013-03-24 05:20:00,
2013-03-23 23:25:00,23.9,-12.4,30.39,NW,325,0.0,0.0,19,0.00,,,0.00,VWS V14.01,2013-03-24 05:25:00,
2013-03-23 23:30:00,24.2,-12.1,30.39,NW,324,0.0,0.0,19,0.00,,,0.00,VWS V14.01,2013-03-24 05:30:00,
2013-03-23 23:35:00,24.3,-12.0,30.40,NW,324,0.0,0.0,19,0.00,,,0.00,VWS V14.01,2013-03-24 05:35:00,
2013-03-23 23:40:00,24.3,-12.0,30.40,NW,313,0.0,1.0,19,0.00,,,0.00,VWS V14.01,2013-03-24 05:40:00,
2013-03-23 23:45:00,24.5,-11.9,30.40,NW,311,0.0,1.0,19,0.00,,,0.00,VWS V14.01,2013-03-24 05:45:00,
2013-03-23 23:50:00,24.8,-11.6,30.40,NW,314,0.0,0.0,19,0.00,,,0.00,VWS V14.01,2013-03-24 05:50:00,
2013-03-23 23:55:00,25.4,-11.1,30.40,NW,319,0.0,0.0,19,0.00,,,0.00,VWS V14.01,2013-03-24 05:55:00,